createdAt,value
2018-09-14T00:00:15.410Z,99.30
2018-09-14T00:02:44.675Z,97.40
2018-09-14T00:05:13.978Z,97.20
2018-09-14T00:07:43.155Z,99.80
2018-09-14T00:10:12.423Z,97.20
2018-09-14T00:12:41.589Z,98.40
2018-09-14T00:15:10.999Z,99.90
2018-09-14T00:17:40.127Z,99.90
2018-09-14T00:20:09.337Z,99.90
2018-09-14T00:22:38.547Z,99.10
2018-09-14T00:25:08.796Z,99.20
2018-09-14T00:27:38.041Z,99.60
2018-09-14T00:30:07.276Z,99.40
2018-09-14T00:32:36.490Z,99.20
2018-09-14T00:35:06.992Z,98.40
2018-09-14T00:37:36.238Z,98.60
2018-09-14T00:40:05.627Z,97.00
2018-09-14T00:42:34.855Z,97.20
2018-09-14T00:45:04.295Z,98.40
2018-09-14T00:47:33.530Z,99.80
2018-09-14T00:50:02.717Z,99.90
2018-09-14T00:52:31.921Z,98.70
2018-09-14T00:55:01.206Z,96.30
2018-09-14T00:57:30.394Z,94.70
2018-09-14T00:59:59.604Z,94.60
2018-09-14T01:02:28.774Z,95.70
2018-09-14T01:04:59.142Z,96.60
2018-09-14T01:07:28.328Z,96.80
2018-09-14T01:09:57.540Z,98.20
2018-09-14T01:12:26.765Z,98.10
2018-09-14T01:14:56.091Z,97.90
2018-09-14T01:17:25.295Z,97.80
2018-09-14T01:19:54.495Z,98.50
2018-09-14T01:22:23.635Z,98.10
2018-09-14T01:24:54.657Z,96.60
2018-09-14T01:27:23.839Z,96.00
2018-09-14T01:29:53.004Z,96.50
2018-09-14T01:32:22.154Z,97.50
2018-09-14T01:34:51.525Z,97.40
2018-09-14T01:37:20.685Z,98.00
2018-09-14T01:39:49.891Z,99.10
2018-09-14T01:42:19.062Z,99.20
2018-09-14T01:44:48.342Z,98.60
2018-09-14T01:47:17.623Z,98.60
2018-09-14T01:49:46.799Z,98.90
2018-09-14T01:52:15.975Z,98.10
2018-09-14T01:54:45.340Z,98.30
2018-09-14T01:57:14.504Z,98.00
2018-09-14T01:59:43.658Z,97.60
2018-09-14T02:02:12.836Z,96.50
2018-09-14T02:04:45.634Z,96.30
2018-09-14T02:07:14.804Z,96.30
2018-09-14T02:09:44.027Z,95.50
2018-09-14T02:12:13.215Z,96.80
2018-09-14T02:14:46.897Z,97.60
2018-09-14T02:17:17.431Z,97.30
2018-09-14T02:19:46.613Z,97.70
2018-09-14T02:22:15.771Z,99.20
2018-09-14T02:24:45.137Z,99.30
2018-09-14T02:27:14.339Z,99.60
2018-09-14T02:29:43.543Z,99.80
2018-09-14T02:32:14.065Z,99.60
2018-09-14T02:34:43.375Z,99.20
2018-09-14T02:37:12.568Z,97.80
2018-09-14T02:39:41.748Z,97.70
2018-09-14T02:42:10.939Z,98.20
2018-09-14T02:44:40.159Z,99.20
2018-09-14T02:47:10.042Z,98.20
2018-09-14T02:49:39.232Z,98.90
2018-09-14T02:52:08.450Z,98.00
2018-09-14T02:54:37.930Z,96.70
2018-09-14T02:57:07.120Z,97.90
2018-09-14T02:59:36.295Z,98.20
2018-09-14T03:02:05.566Z,99.30
2018-09-14T03:04:35.955Z,99.50
2018-09-14T03:07:05.229Z,99.90
2018-09-14T03:09:34.401Z,98.60
2018-09-14T03:12:03.591Z,98.20
2018-09-14T03:14:33.882Z,97.50
2018-09-14T03:17:03.048Z,97.70
2018-09-14T03:19:32.287Z,96.40
2018-09-14T03:22:01.488Z,97.00
2018-09-14T03:24:30.880Z,98.70
2018-09-14T03:27:00.105Z,98.60
2018-09-14T03:29:29.303Z,97.50
2018-09-14T03:31:58.627Z,98.30
2018-09-14T03:34:27.995Z,98.70
2018-09-14T03:36:57.969Z,97.80
2018-09-14T03:39:27.279Z,98.40
2018-09-14T03:41:56.442Z,98.20
2018-09-14T03:44:27.061Z,96.90
2018-09-14T03:46:56.265Z,97.00
2018-09-14T03:49:25.529Z,97.30
2018-09-14T03:51:59.346Z,96.70
2018-09-14T03:54:28.576Z,96.40
2018-09-14T03:56:57.951Z,95.10
2018-09-14T03:59:27.105Z,95.10
2018-09-14T04:01:56.343Z,96.70
2018-09-14T04:04:25.546Z,96.50
2018-09-14T04:06:54.740Z,97.10
2018-09-14T04:09:23.917Z,97.80
2018-09-14T04:11:53.204Z,98.30
2018-09-14T04:14:22.560Z,99.00
2018-09-14T04:16:51.743Z,99.90
2018-09-14T04:19:20.953Z,99.90
2018-09-14T04:21:50.269Z,99.90
2018-09-14T04:24:19.553Z,99.90
2018-09-14T04:26:48.732Z,99.90
2018-09-14T04:29:17.997Z,99.90
2018-09-14T04:31:47.155Z,99.60
2018-09-14T04:34:16.523Z,99.90
2018-09-14T04:36:45.724Z,99.90
2018-09-14T04:39:14.927Z,99.90
2018-09-14T04:41:44.173Z,99.90
2018-09-14T04:44:13.591Z,99.90
2018-09-14T04:46:42.780Z,99.90
2018-09-14T04:49:11.997Z,99.40
2018-09-14T04:51:41.203Z,99.60
2018-09-14T04:54:10.637Z,98.10
2018-09-14T04:56:39.907Z,96.10
2018-09-14T04:59:09.090Z,96.90
2018-09-14T05:01:38.292Z,98.40
2018-09-14T05:04:07.752Z,99.20
2018-09-14T05:06:36.918Z,98.50
2018-09-14T05:09:07.418Z,98.90
2018-09-14T05:11:36.768Z,97.20
2018-09-14T05:14:06.094Z,96.70
2018-09-14T05:16:35.309Z,97.30
2018-09-14T05:19:04.619Z,98.90
2018-09-14T05:21:33.839Z,99.40
2018-09-14T05:24:03.901Z,99.70
2018-09-14T05:26:33.086Z,99.90
2018-09-14T05:29:02.331Z,98.60
2018-09-14T05:31:31.580Z,99.20
2018-09-14T05:34:00.870Z,97.40
2018-09-14T05:36:30.057Z,97.40
2018-09-14T05:39:00.008Z,98.70
2018-09-14T05:41:29.469Z,97.90
2018-09-14T05:43:59.056Z,96.70
2018-09-14T05:46:28.470Z,97.40
2018-09-14T05:48:57.983Z,98.90
2018-09-14T05:51:27.441Z,99.60
2018-09-14T05:53:57.153Z,99.90
2018-09-14T05:56:26.703Z,99.10
2018-09-14T05:58:56.087Z,99.10
2018-09-14T06:01:25.441Z,99.90
2018-09-14T06:03:55.863Z,99.50
2018-09-14T06:06:25.162Z,99.20
2018-09-14T06:08:54.776Z,98.50
2018-09-14T06:11:24.167Z,98.40
2018-09-14T06:13:53.574Z,98.50
2018-09-14T06:16:22.928Z,97.10
2018-09-14T06:18:53.084Z,98.00
2018-09-14T06:21:22.857Z,98.80
2018-09-14T06:23:53.234Z,98.30
2018-09-14T06:26:22.744Z,98.80
2018-09-14T06:28:52.767Z,98.70
2018-09-14T06:31:21.948Z,97.70
2018-09-14T06:33:51.499Z,96.90
2018-09-14T06:36:20.782Z,95.70
2018-09-14T06:38:50.555Z,94.70
2018-09-14T06:41:19.974Z,94.20
2018-09-14T06:43:51.428Z,93.80
2018-09-14T06:46:20.863Z,93.80
2018-09-14T06:48:50.436Z,94.20
2018-09-14T06:51:19.910Z,93.50
2018-09-14T06:53:49.448Z,91.80
2018-09-14T06:56:18.917Z,90.70
2018-09-14T06:58:48.273Z,90.50
2018-09-14T07:01:20.627Z,93.00
2018-09-14T07:03:50.912Z,91.30
2018-09-14T07:06:21.524Z,90.50
2018-09-14T07:08:52.261Z,90.70
2018-09-14T07:11:23.236Z,88.60
2018-09-14T07:13:54.078Z,91.10
2018-09-14T07:16:24.230Z,87.00
2018-09-14T07:18:53.431Z,83.60
2018-09-14T07:21:22.666Z,83.80
2018-09-14T07:23:51.995Z,80.10
2018-09-14T07:26:21.281Z,79.60
2018-09-14T07:28:50.785Z,76.10
2018-09-14T07:31:20.235Z,80.20
2018-09-14T07:33:49.676Z,79.60
2018-09-14T07:36:18.921Z,79.40
2018-09-14T07:38:48.309Z,72.90
2018-09-14T07:41:17.687Z,71.90
2018-09-14T07:43:48.014Z,72.80
2018-09-14T07:46:17.224Z,73.70
2018-09-14T07:48:47.143Z,72.20
2018-09-14T07:51:16.496Z,78.00
2018-09-14T07:53:45.818Z,80.00
2018-09-14T07:56:15.142Z,77.90
2018-09-14T07:58:44.439Z,76.30
2018-09-14T08:01:13.709Z,77.60
2018-09-14T08:03:43.439Z,74.00
2018-09-14T08:06:12.877Z,73.30
2018-09-14T08:08:42.121Z,78.30
2018-09-14T08:11:11.350Z,70.60
2018-09-14T08:13:40.581Z,69.00
2018-09-14T08:16:09.822Z,66.50
2018-09-14T08:18:39.068Z,65.00
2018-09-14T08:21:08.383Z,67.30
2018-09-14T08:23:37.649Z,62.30
2018-09-14T08:26:06.994Z,64.60
2018-09-14T08:28:36.304Z,66.50
2018-09-14T08:31:05.671Z,67.50
2018-09-14T08:33:36.059Z,67.60
2018-09-14T08:36:05.421Z,69.10
2018-09-14T08:38:34.714Z,64.00
2018-09-14T08:41:04.504Z,65.20
2018-09-14T08:43:34.106Z,63.60
2018-09-14T08:46:03.409Z,61.80
2018-09-14T08:48:32.660Z,61.80
2018-09-14T08:51:02.200Z,61.60
2018-09-14T08:53:31.621Z,62.30
2018-09-14T08:56:00.879Z,59.90
2018-09-14T08:58:30.415Z,60.00
2018-09-14T09:01:00.260Z,61.90
2018-09-14T09:03:31.205Z,60.90
2018-09-14T09:06:00.473Z,59.40
2018-09-14T09:08:29.934Z,61.50
2018-09-14T09:10:59.355Z,60.10
2018-09-14T09:13:29.796Z,58.00
2018-09-14T09:15:59.464Z,55.50
2018-09-14T09:18:29.170Z,56.70
2018-09-14T09:20:58.565Z,56.10
2018-09-14T09:23:29.100Z,56.70
2018-09-14T09:25:58.525Z,58.60
2018-09-14T09:28:28.747Z,58.00
2018-09-14T09:30:58.899Z,57.90
2018-09-14T09:33:30.391Z,52.90
2018-09-14T09:36:02.981Z,50.70
2018-09-14T09:38:46.121Z,51.50
2018-09-14T09:41:23.742Z,52.10
2018-09-14T09:43:53.433Z,48.40
2018-09-14T09:46:27.389Z,44.30
2018-09-14T09:49:01.543Z,48.10
2018-09-14T09:51:31.521Z,49.00
2018-09-14T09:54:01.357Z,48.10
2018-09-14T09:56:32.696Z,43.60
2018-09-14T09:59:02.104Z,48.40
2018-09-14T10:02:01.845Z,46.30
2018-09-14T10:04:35.538Z,47.40
2018-09-14T10:07:04.792Z,50.00
2018-09-14T10:09:36.091Z,51.30
2018-09-14T10:12:05.626Z,50.60
2018-09-14T10:14:37.191Z,52.60
2018-09-14T10:17:06.519Z,51.40
2018-09-14T10:19:36.220Z,51.50
2018-09-14T10:22:09.865Z,50.20
2018-09-14T10:27:29.848Z,49.30
2018-09-14T10:29:59.207Z,43.80
2018-09-14T10:32:28.501Z,44.70
2018-09-14T10:34:58.900Z,43.70
2018-09-14T10:37:28.128Z,44.90
2018-09-14T10:39:58.277Z,47.60
2018-09-14T10:42:27.624Z,42.00
2018-09-14T10:45:03.319Z,42.80
2018-09-14T10:47:32.740Z,41.50
2018-09-14T10:50:03.328Z,40.90
2018-09-14T10:52:32.723Z,43.90
2018-09-14T10:55:02.201Z,40.60
2018-09-14T10:57:31.599Z,39.80
2018-09-14T11:00:01.060Z,42.20
2018-09-14T11:02:30.519Z,37.00
2018-09-14T11:06:04.596Z,38.80
2018-09-14T11:08:34.082Z,42.20
2018-09-14T11:11:03.492Z,41.10
2018-09-14T11:13:33.049Z,40.10
2018-09-14T11:16:02.494Z,40.00
2018-09-14T11:18:32.985Z,40.70
2018-09-14T11:21:03.426Z,40.70
2018-09-14T11:23:35.727Z,39.90
2018-09-14T11:26:05.385Z,37.70
2018-09-14T11:28:34.864Z,42.40
2018-09-14T11:31:04.268Z,37.90
2018-09-14T11:33:37.563Z,38.50
2018-09-14T11:36:07.191Z,38.40
2018-09-14T11:38:41.387Z,42.40
2018-09-14T11:41:12.148Z,42.20
2018-09-14T11:43:42.483Z,40.20
2018-09-14T11:46:12.349Z,41.90
2018-09-14T11:48:48.297Z,41.20
2018-09-14T11:51:20.206Z,44.60
2018-09-14T11:53:58.801Z,42.50
2018-09-14T11:56:32.376Z,41.40
2018-09-14T11:59:01.887Z,42.90
2018-09-14T12:01:36.556Z,42.50
2018-09-14T12:04:17.756Z,41.30
2018-09-14T12:06:46.980Z,41.60
2018-09-14T12:09:16.441Z,42.00
2018-09-14T12:11:45.907Z,40.20
2018-09-14T12:14:24.025Z,43.30
2018-09-14T12:17:01.140Z,41.20
2018-09-14T12:19:31.169Z,39.80
2018-09-14T12:22:05.545Z,40.10
2018-09-14T12:24:39.235Z,41.60
2018-09-14T12:27:08.862Z,42.80
2018-09-14T12:29:44.880Z,41.10
2018-09-14T12:32:15.287Z,40.60
2018-09-14T12:34:44.702Z,41.40
2018-09-14T12:37:14.281Z,39.00
2018-09-14T12:39:46.305Z,38.20
2018-09-14T12:42:17.578Z,38.50
2018-09-14T12:44:52.416Z,38.80
2018-09-14T12:47:28.496Z,37.90
2018-09-14T12:49:59.061Z,40.40
2018-09-14T12:52:34.897Z,39.30
2018-09-14T12:55:12.006Z,35.20
2018-09-14T12:57:41.379Z,34.70
2018-09-14T13:03:28.304Z,33.00
2018-09-14T13:06:08.706Z,33.80
2018-09-14T13:08:58.940Z,33.60
2018-09-14T13:11:34.878Z,33.60
2018-09-14T13:14:25.902Z,32.90
2018-09-14T13:16:59.676Z,31.00
2018-09-14T13:19:31.413Z,31.50
2018-09-14T13:22:14.868Z,30.20
2018-09-14T13:24:56.235Z,29.50
2018-09-14T13:27:30.863Z,29.80
2018-09-14T13:30:00.265Z,28.40
2018-09-14T13:32:30.055Z,28.00
2018-09-14T13:37:55.946Z,26.30
2018-09-14T13:40:27.630Z,25.40
2018-09-14T13:42:57.653Z,26.50
2018-09-14T13:45:27.584Z,22.30
2018-09-14T13:47:57.043Z,20.80
2018-09-14T13:50:26.477Z,18.00
2018-09-14T13:52:56.025Z,16.00
2018-09-14T13:55:25.684Z,15.00
2018-09-14T13:57:55.196Z,12.90
2018-09-14T14:00:24.730Z,11.40
2018-09-14T14:02:55.478Z,11.50
2018-09-14T14:05:25.000Z,11.50
2018-09-14T14:07:57.164Z,12.40
2018-09-14T14:10:31.840Z,13.90
2018-09-14T14:13:02.729Z,14.90
2018-09-14T14:15:32.195Z,13.10
2018-09-14T14:18:02.619Z,12.60
2018-09-14T14:20:32.364Z,13.50
2018-09-14T14:23:07.839Z,14.90
2018-09-14T14:25:43.058Z,14.90
2018-09-14T14:28:12.342Z,16.10
2018-09-14T14:30:41.787Z,18.40
2018-09-14T14:33:22.986Z,20.60
2018-09-14T14:35:58.166Z,18.70
2018-09-14T14:38:27.532Z,20.10
2018-09-14T14:40:56.996Z,19.10
2018-09-14T14:43:26.515Z,18.20
2018-09-14T14:45:56.574Z,17.40
2018-09-14T14:48:25.974Z,15.80
2018-09-14T14:50:55.876Z,15.40
2018-09-14T14:53:25.203Z,14.50
2018-09-14T14:55:54.726Z,14.80
2018-09-14T14:58:24.209Z,14.20
2018-09-14T15:01:01.199Z,14.60
2018-09-14T15:03:49.722Z,15.00
2018-09-14T15:06:22.621Z,16.10
2018-09-14T15:08:52.463Z,16.60
2018-09-14T15:11:21.991Z,16.90
2018-09-14T15:16:47.372Z,18.00
2018-09-14T15:19:16.624Z,18.50
2018-09-14T15:21:46.375Z,19.80
2018-09-14T15:24:18.521Z,19.80
2018-09-14T15:26:47.894Z,18.30
2018-09-14T15:29:17.299Z,20.20
2018-09-14T15:31:47.071Z,18.10
2018-09-14T15:34:17.550Z,19.00
2018-09-14T15:36:46.832Z,19.60
2018-09-14T15:39:16.088Z,21.00
2018-09-14T15:41:45.474Z,21.80
2018-09-14T15:44:15.845Z,22.60
2018-09-14T15:46:45.257Z,24.60
2018-09-14T15:49:14.520Z,26.00
2018-09-14T15:51:44.129Z,26.80
2018-09-14T15:54:15.668Z,27.60
2018-09-14T15:56:45.190Z,28.20
2018-09-14T15:59:14.733Z,29.90
2018-09-14T16:01:44.167Z,30.90
2018-09-14T16:04:19.680Z,32.70
2018-09-14T16:06:49.768Z,33.30
2018-09-14T16:09:26.285Z,34.40
2018-09-14T16:11:56.168Z,34.60
2018-09-14T16:14:27.714Z,35.20
2018-09-14T16:16:57.382Z,35.00
2018-09-14T16:19:27.285Z,34.80
2018-09-14T16:21:57.006Z,34.80
2018-09-14T16:24:27.681Z,37.30
2018-09-14T16:26:57.405Z,37.20
2018-09-14T16:29:27.124Z,37.80
2018-09-14T16:31:57.921Z,40.50
2018-09-14T16:34:30.291Z,40.90
2018-09-14T17:48:25.181Z,53.20
2018-09-14T17:57:23.906Z,54.10
2018-09-14T18:05:54.656Z,53.60
2018-09-14T18:08:23.911Z,55.30
2018-09-14T18:10:53.200Z,58.20
2018-09-14T18:13:26.671Z,60.60
2018-09-14T18:15:55.925Z,61.40
2018-09-14T18:18:25.158Z,62.90
2018-09-14T18:21:01.197Z,63.30
2018-09-14T18:23:47.019Z,63.70
2018-09-14T18:26:18.047Z,63.80
2018-09-14T18:28:52.489Z,63.40
2018-09-14T18:31:22.251Z,63.90
2018-09-14T18:33:54.492Z,65.90
2018-09-14T18:36:23.923Z,66.60
2018-09-14T18:58:15.475Z,65.70
2018-09-14T19:00:45.373Z,65.40
2018-09-14T19:06:02.863Z,67.50
2018-09-14T19:08:38.365Z,65.20
2018-09-14T19:11:09.026Z,64.70
2018-09-14T19:13:38.330Z,67.00
2018-09-14T19:16:08.423Z,69.70
2018-09-14T19:18:38.611Z,69.40
2018-09-14T19:21:07.893Z,69.00
2018-09-14T19:23:38.196Z,68.40
2018-09-14T19:26:07.499Z,71.90
2018-09-14T19:28:36.709Z,70.70
2018-09-14T19:31:06.559Z,71.00
2018-09-14T19:33:35.917Z,71.50
2018-09-14T19:36:05.409Z,73.90
2018-09-14T19:38:34.943Z,75.60
2018-09-14T19:41:04.069Z,73.60
2018-09-14T19:43:33.569Z,75.60
2018-09-14T19:46:03.727Z,75.90
2018-09-14T19:48:33.159Z,77.90
2018-09-14T19:51:02.613Z,76.50
2018-09-14T19:53:33.969Z,77.30
2018-09-14T19:56:03.225Z,76.50
2018-09-14T19:58:32.764Z,76.60
2018-09-14T20:01:02.211Z,80.20
2018-09-14T20:03:35.357Z,84.00
2018-09-14T20:06:04.942Z,84.30
2018-09-14T20:08:34.414Z,82.90
2018-09-14T20:11:03.907Z,83.00
2018-09-14T20:13:34.589Z,77.20
2018-09-14T20:16:04.630Z,77.70
2018-09-14T20:18:34.430Z,75.30
2018-09-14T20:21:04.848Z,74.70
2018-09-14T20:23:34.862Z,72.20
2018-09-14T20:26:04.140Z,72.40
2018-09-14T20:28:33.940Z,73.60
2018-09-14T20:31:03.606Z,75.70
2018-09-14T20:33:34.657Z,75.00
2018-09-14T20:36:03.981Z,75.70
2018-09-14T20:38:33.619Z,75.90
2018-09-14T20:41:03.632Z,76.00
2018-09-14T20:43:36.688Z,80.30
2018-09-14T20:46:06.159Z,84.70
2018-09-14T20:48:36.227Z,84.90
2018-09-14T20:51:07.714Z,88.00
2018-09-14T20:53:39.942Z,88.90
2018-09-14T20:56:10.643Z,86.40
2018-09-14T20:58:40.181Z,86.10
2018-09-14T21:01:09.693Z,88.70
2018-09-14T21:03:40.267Z,88.30
2018-09-14T21:06:10.069Z,89.20
2018-09-14T21:08:40.408Z,87.00
2018-09-14T21:11:09.886Z,86.40
2018-09-14T21:13:45.313Z,86.00
2018-09-14T21:16:16.953Z,85.60
2018-09-14T21:18:50.481Z,81.60
2018-09-14T21:21:21.686Z,82.10
2018-09-14T21:23:54.887Z,81.40
2018-09-14T21:26:24.751Z,83.20
2018-09-14T21:28:58.609Z,83.70
2018-09-14T21:31:31.424Z,82.70
2018-09-14T21:34:06.101Z,82.90
2018-09-14T21:36:35.715Z,82.10
2018-09-14T21:39:18.365Z,82.90
2018-09-14T21:41:49.657Z,82.60
2018-09-14T21:44:22.101Z,82.40
2018-09-14T21:46:51.491Z,80.90
2018-09-14T21:49:22.228Z,80.80
2018-09-14T21:51:51.907Z,78.50
2018-09-14T21:54:22.863Z,77.30
2018-09-14T21:56:52.257Z,78.00
2018-09-14T21:59:21.695Z,81.10
2018-09-14T22:01:50.946Z,82.10
2018-09-14T22:04:23.697Z,80.90
2018-09-14T22:06:53.134Z,81.20
2018-09-14T22:09:22.408Z,81.80
2018-09-14T22:11:52.484Z,80.80
2018-09-14T22:14:26.846Z,83.10
2018-09-14T22:17:00.343Z,82.40
2018-09-14T22:19:30.936Z,83.90
2018-09-14T22:22:01.544Z,82.80
2018-09-14T22:24:31.037Z,82.90
2018-09-14T22:27:00.456Z,82.60
2018-09-14T22:29:30.798Z,81.50
2018-09-14T22:32:00.591Z,82.10
2018-09-14T22:34:30.102Z,85.60
2018-09-14T22:36:59.531Z,82.20
2018-09-14T22:39:29.628Z,82.40
2018-09-14T22:42:00.205Z,83.40
2018-09-14T22:44:29.764Z,84.50
2018-09-14T22:46:59.893Z,85.50
2018-09-14T22:49:29.144Z,85.50
2018-09-14T22:51:58.634Z,84.10
2018-09-14T22:54:28.459Z,84.60
2018-09-14T22:56:57.886Z,84.70
2018-09-14T22:59:27.273Z,85.70
2018-09-14T23:01:56.931Z,84.60
2018-09-14T23:04:26.394Z,84.70
2018-09-14T23:06:55.629Z,85.80
2018-09-14T23:09:25.155Z,86.00
2018-09-14T23:11:54.541Z,88.00
2018-09-14T23:14:29.648Z,90.10
2018-09-14T23:16:59.343Z,88.50
2018-09-14T23:19:29.189Z,90.30
2018-09-14T23:21:58.676Z,90.50
2018-09-14T23:24:28.388Z,91.30
2018-09-14T23:26:57.841Z,91.90
2018-09-14T23:29:27.087Z,92.00
2018-09-14T23:31:56.488Z,92.30
2018-09-14T23:34:26.016Z,90.90
2018-09-14T23:36:55.248Z,89.90
2018-09-14T23:39:24.738Z,89.80
2018-09-14T23:41:54.104Z,90.30
2018-09-14T23:44:23.483Z,90.50
2018-09-14T23:46:52.809Z,92.50
2018-09-14T23:49:22.189Z,91.60
2018-09-14T23:51:51.584Z,91.70
2018-09-14T23:54:21.124Z,93.50
2018-09-14T23:56:50.833Z,94.40
2018-09-14T23:59:20.210Z,94.80
